Time;durP1;ratioP1;P1;durP2;ratioP2;P2;SDS_P1;SDS_P2;PMS_P1;PMS_P2;Temp;Humidity;BMP_temperature;BMP_pressure;BME280_temperature;BME280_humidity;BME280_pressure;Samples;Min_cycle;Max_cycle;Signal;HPM_P1;HPM_P2
2023/05/27 00:03:09;;;;;;;5.90;1.95;;;;;;;;;;10365126;28;20908;-78
2023/05/27 00:08:10;;;;;;;2.60;2.40;;;;;;;;;;10359943;28;20284;-78
2023/05/27 00:13:11;;;;;;;5.10;1.40;;;;;;;;;;10329340;28;20215;-77
2023/05/27 00:18:12;;;;;;;4.85;1.55;;;;;;;;;;10344851;28;20216;-79
2023/05/27 00:23:13;;;;;;;3.10;1.63;;;;;;;;;;10348337;28;20269;-77
2023/05/27 00:28:14;;;;;;;4.57;1.33;;;;;;;;;;10332241;28;20224;-77
2023/05/27 00:33:15;;;;;;;3.08;1.52;;;;;;;;;;10350212;28;20245;-83
2023/05/27 00:38:16;;;;;;;4.00;1.58;;;;;;;;;;10354025;28;20219;-80
2023/05/27 00:43:17;;;;;;;2.53;1.95;;;;;;;;;;10360885;28;20220;-80
2023/05/27 00:48:18;;;;;;;9.38;2.08;;;;;;;;;;10357488;28;20683;-81
2023/05/27 00:53:20;;;;;;;1.80;1.70;;;;;;;;;;10370717;28;20285;-82
2023/05/27 00:58:23;;;;;;;3.33;1.58;;;;;;;;;;10353438;28;20677;-78
2023/05/27 01:03:24;;;;;;;1.75;1.42;;;;;;;;;;10353869;28;20219;-78
2023/05/27 01:08:37;;;;;;;4.95;1.73;;;;;;;;;;10368091;28;20219;-81
2023/05/27 01:13:46;;;;;;;6.95;1.73;;;;;;;;;;10371838;28;20334;-81
2023/05/27 01:18:49;;;;;;;6.63;1.90;;;;;;;;;;10366029;28;20213;-79
2023/05/27 01:23:51;;;;;;;3.03;1.70;;;;;;;;;;10355779;28;20313;-82
2023/05/27 01:28:52;;;;;;;6.95;2.22;;;;;;;;;;10368871;28;20211;-77
2023/05/27 01:34:00;;;;;;;3.85;1.70;;;;;;;;;;10363078;28;20594;-79
2023/05/27 01:39:02;;;;;;;4.45;2.22;;;;;;;;;;10349661;28;20216;-80
2023/05/27 01:44:04;;;;;;;7.20;1.70;;;;;;;;;;10344341;28;20625;-80
2023/05/27 01:49:05;;;;;;;5.30;2.10;;;;;;;;;;10348972;28;20509;-78
2023/05/27 01:54:06;;;;;;;1.60;1.42;;;;;;;;;;10333624;28;20716;-78
2023/05/27 01:59:07;;;;;;;5.13;1.75;;;;;;;;;;10354777;28;20219;-76
2023/05/27 02:04:08;;;;;;;5.45;2.03;;;;;;;;;;10356750;28;20902;-78
2023/05/27 02:09:12;;;;;;;5.65;1.85;;;;;;;;;;10369310;28;20211;-78
2023/05/27 02:14:14;;;;;;;1.98;1.45;;;;;;;;;;10356884;28;20224;-76
2023/05/27 02:19:16;;;;;;;1.60;1.52;;;;;;;;;;10362547;28;20215;-77
2023/05/27 02:24:17;;;;;;;3.42;2.08;;;;;;;;;;10344230;28;20463;-76
2023/05/27 02:29:18;;;;;;;3.63;2.00;;;;;;;;;;10341087;28;20212;-78
2023/05/27 02:34:19;;;;;;;2.25;1.83;;;;;;;;;;10374505;28;20235;-77
2023/05/27 02:39:20;;;;;;;1.70;1.60;;;;;;;;;;10359254;28;20223;-77
2023/05/27 02:44:21;;;;;;;4.55;1.42;;;;;;;;;;10374114;28;20215;-77
2023/05/27 02:49:22;;;;;;;1.52;1.45;;;;;;;;;;10349385;28;20239;-79
2023/05/27 02:54:24;;;;;;;1.35;1.20;;;;;;;;;;10357759;28;20220;-77
2023/05/27 02:59:25;;;;;;;5.20;1.38;;;;;;;;;;10342906;28;20306;-79
2023/05/27 03:04:26;;;;;;;3.35;1.25;;;;;;;;;;10351969;28;20929;-76
2023/05/27 03:09:27;;;;;;;2.95;1.73;;;;;;;;;;10357064;28;20335;-76
2023/05/27 03:14:28;;;;;;;3.42;1.80;;;;;;;;;;10353258;28;20818;-77
2023/05/27 03:19:29;;;;;;;1.38;1.27;;;;;;;;;;10360645;28;20215;-78
2023/05/27 03:24:30;;;;;;;2.08;1.80;;;;;;;;;;10341708;28;20846;-76
2023/05/27 03:29:31;;;;;;;2.50;1.20;;;;;;;;;;10367407;28;20290;-76
2023/05/27 03:34:33;;;;;;;3.30;1.95;;;;;;;;;;10365663;28;20775;-77
2023/05/27 03:39:34;;;;;;;2.75;1.52;;;;;;;;;;10364769;28;20203;-76
2023/05/27 03:44:35;;;;;;;1.83;1.55;;;;;;;;;;10362834;28;21614;-76
2023/05/27 03:49:36;;;;;;;3.22;1.67;;;;;;;;;;10363560;28;20241;-75
2023/05/27 03:54:37;;;;;;;5.15;2.17;;;;;;;;;;10357020;28;20231;-77
2023/05/27 03:59:38;;;;;;;2.10;2.00;;;;;;;;;;10371360;28;20215;-77
2023/05/27 04:04:39;;;;;;;3.67;1.58;;;;;;;;;;10348588;28;20778;-76
2023/05/27 04:09:40;;;;;;;2.85;1.88;;;;;;;;;;10367164;28;20229;-77
2023/05/27 04:14:41;;;;;;;4.70;2.03;;;;;;;;;;10344828;28;20627;-78
2023/05/27 04:19:42;;;;;;;5.80;1.60;;;;;;;;;;10378798;28;20447;-77
2023/05/27 04:24:44;;;;;;;3.70;2.13;;;;;;;;;;10373431;28;20211;-82
2023/05/27 04:29:45;;;;;;;4.07;1.88;;;;;;;;;;10377108;28;20322;-77
2023/05/27 04:34:48;;;;;;;7.82;2.25;;;;;;;;;;10371078;28;20224;-80
2023/05/27 04:39:50;;;;;;;2.20;1.42;;;;;;;;;;10380218;28;20223;-79
2023/05/27 04:44:53;;;;;;;5.60;1.83;;;;;;;;;;10342589;28;20219;-82
2023/05/27 04:49:54;;;;;;;5.20;2.10;;;;;;;;;;10337232;28;20224;-79
2023/05/27 04:54:55;;;;;;;10.98;2.78;;;;;;;;;;10341598;28;20241;-79
2023/05/27 05:05:12;;;;;;;3.63;2.33;;;;;;;;;;10352469;28;20215;-78
2023/05/27 05:10:13;;;;;;;4.97;2.20;;;;;;;;;;10334885;28;20258;-77
2023/05/27 05:15:22;;;;;;;5.93;2.47;;;;;;;;;;10345734;28;20219;-76
2023/05/27 05:20:25;;;;;;;2.88;2.05;;;;;;;;;;10336187;28;20285;-78
2023/05/27 05:25:26;;;;;;;3.65;2.30;;;;;;;;;;10349040;28;20992;-78
2023/05/27 05:30:30;;;;;;;10.77;2.55;;;;;;;;;;10351321;28;20256;-77
2023/05/27 05:35:31;;;;;;;3.55;2.05;;;;;;;;;;10346638;28;20218;-78
2023/05/27 05:40:49;;;;;;;9.98;2.47;;;;;;;;;;10343452;28;20285;-80
2023/05/27 05:45:51;;;;;;;5.03;2.30;;;;;;;;;;10369569;28;20223;-77
2023/05/27 05:50:54;;;;;;;6.80;2.00;;;;;;;;;;10346732;28;20220;-76
2023/05/27 06:08:08;;;;;;;7.45;2.25;;;;;;;;;;10371199;28;20362;-79
2023/05/27 06:13:13;;;;;;;5.75;2.20;;;;;;;;;;10300541;28;20222;-77
2023/05/27 06:18:15;;;;;;;6.47;2.35;;;;;;;;;;10349905;28;20224;-79
2023/05/27 06:23:16;;;;;;;6.30;1.65;;;;;;;;;;10361611;28;20242;-78
2023/05/27 06:28:26;;;;;;;8.98;2.33;;;;;;;;;;10341655;28;20218;-77
2023/05/27 06:33:27;;;;;;;4.57;1.80;;;;;;;;;;10370939;28;20637;-77
2023/05/27 06:38:28;;;;;;;6.97;1.70;;;;;;;;;;10335261;28;20253;-81
2023/05/27 06:43:31;;;;;;;7.60;1.92;;;;;;;;;;10311501;28;20204;-78
2023/05/27 06:48:38;;;;;;;7.00;2.10;;;;;;;;;;10339272;28;20238;-81
2023/05/27 06:53:39;;;;;;;5.85;2.15;;;;;;;;;;10369822;28;20232;-80
2023/05/27 06:58:45;;;;;;;5.57;2.22;;;;;;;;;;10351234;28;20230;-80
2023/05/27 07:03:50;;;;;;;7.50;2.28;;;;;;;;;;10343490;28;20977;-79
2023/05/27 07:08:57;;;;;;;6.68;1.83;;;;;;;;;;10368171;28;20841;-79
2023/05/27 07:14:02;;;;;;;5.35;2.22;;;;;;;;;;10368944;28;20224;-81
2023/05/27 07:19:06;;;;;;;5.05;2.10;;;;;;;;;;10349184;28;20262;-78
2023/05/27 07:24:13;;;;;;;5.78;1.67;;;;;;;;;;10356721;28;20227;-81
2023/05/27 07:29:15;;;;;;;5.82;1.60;;;;;;;;;;10345471;28;20388;-78
2023/05/27 07:34:41;;;;;;;2.20;1.25;;;;;;;;;;10348978;28;20232;-80
2023/05/27 07:39:43;;;;;;;6.07;1.48;;;;;;;;;;10331250;28;20211;-80
2023/05/27 07:44:47;;;;;;;2.55;1.55;;;;;;;;;;10356618;28;20223;-81
2023/05/27 07:49:50;;;;;;;5.97;1.55;;;;;;;;;;10361206;28;20532;-81
2023/05/27 07:55:14;;;;;;;5.40;1.50;;;;;;;;;;10324046;28;20257;-80
2023/05/27 08:00:15;;;;;;;4.18;1.02;;;;;;;;;;10329691;28;20211;-78
2023/05/27 08:05:28;;;;;;;2.38;0.80;;;;;;;;;;10351975;28;20212;-78
2023/05/27 08:10:36;;;;;;;6.45;0.90;;;;;;;;;;10340334;28;20239;-77
2023/05/27 08:16:00;;;;;;;4.32;1.50;;;;;;;;;;10339404;28;20226;-79
2023/05/27 08:21:17;;;;;;;4.43;1.10;;;;;;;;;;10342971;28;20910;-78
2023/05/27 08:26:42;;;;;;;1.92;0.85;;;;;;;;;;10332615;28;20203;-77
2023/05/27 08:31:53;;;;;;;6.80;1.23;;;;;;;;;;10367997;28;20238;-81
2023/05/27 08:36:54;;;;;;;7.07;1.25;;;;;;;;;;10357207;28;20269;-80
2023/05/27 08:41:56;;;;;;;4.50;1.67;;;;;;;;;;10368538;28;20295;-79
2023/05/27 08:46:58;;;;;;;4.53;1.30;;;;;;;;;;10341576;28;20219;-77
2023/05/27 08:52:01;;;;;;;3.88;1.27;;;;;;;;;;10346616;28;20235;-76
2023/05/27 08:57:03;;;;;;;2.35;1.00;;;;;;;;;;10368567;28;20255;-77
2023/05/27 09:02:10;;;;;;;1.92;0.82;;;;;;;;;;10356701;28;20711;-78
2023/05/27 09:07:11;;;;;;;7.95;1.60;;;;;;;;;;10386192;28;20323;-79
2023/05/27 09:12:12;;;;;;;2.70;1.38;;;;;;;;;;10374528;28;20245;-78
2023/05/27 09:17:15;;;;;;;3.53;0.90;;;;;;;;;;10372505;28;20955;-77
2023/05/27 09:22:29;;;;;;;5.30;1.40;;;;;;;;;;10371103;28;20211;-75
2023/05/27 09:27:31;;;;;;;4.35;1.13;;;;;;;;;;10353546;28;20220;-77
2023/05/27 09:32:33;;;;;;;3.40;1.45;;;;;;;;;;10371155;28;20224;-78
2023/05/27 09:37:34;;;;;;;4.70;1.35;;;;;;;;;;10354614;28;20367;-77
2023/05/27 09:42:42;;;;;;;4.03;1.10;;;;;;;;;;10354901;28;20219;-78
2023/05/27 09:47:47;;;;;;;2.42;1.73;;;;;;;;;;10368252;28;20300;-80
2023/05/27 09:52:49;;;;;;;2.30;0.88;;;;;;;;;;10373501;28;20224;-78
2023/05/27 09:57:50;;;;;;;3.95;1.08;;;;;;;;;;10372129;28;20234;-77
2023/05/27 10:02:51;;;;;;;4.20;1.40;;;;;;;;;;10371365;28;21041;-77
2023/05/27 10:07:52;;;;;;;1.05;1.05;;;;;;;;;;10367589;28;20212;-78
2023/05/27 10:12:54;;;;;;;1.73;0.95;;;;;;;;;;10356686;28;20318;-80
2023/05/27 10:17:56;;;;;;;6.97;1.20;;;;;;;;;;10369304;28;20334;-79
2023/05/27 10:23:10;;;;;;;1.80;0.93;;;;;;;;;;10372408;28;20219;-77
2023/05/27 10:28:12;;;;;;;3.55;0.80;;;;;;;;;;10371332;28;20326;-74
2023/05/27 10:33:13;;;;;;;3.10;1.30;;;;;;;;;;10368553;28;20276;-80
2023/05/27 10:38:15;;;;;;;1.50;1.15;;;;;;;;;;10369849;28;20211;-78
2023/05/27 10:43:17;;;;;;;5.97;1.20;;;;;;;;;;10335967;28;20299;-78
2023/05/27 10:48:30;;;;;;;4.03;1.52;;;;;;;;;;10354523;28;20303;-76
2023/05/27 10:53:32;;;;;;;2.78;0.80;;;;;;;;;;10334874;28;20224;-76
2023/05/27 10:58:34;;;;;;;1.35;0.80;;;;;;;;;;10349017;28;20214;-75
2023/05/27 11:03:35;;;;;;;2.22;1.10;;;;;;;;;;10354111;28;20327;-80
2023/05/27 11:08:37;;;;;;;6.10;1.40;;;;;;;;;;10331874;28;20290;-76
2023/05/27 11:13:43;;;;;;;3.65;1.25;;;;;;;;;;10348247;28;20591;-75
2023/05/27 11:18:48;;;;;;;5.03;1.23;;;;;;;;;;10367402;28;20219;-77
2023/05/27 11:23:49;;;;;;;2.15;1.15;;;;;;;;;;10368215;28;20216;-78
2023/05/27 11:28:54;;;;;;;6.55;1.63;;;;;;;;;;10351585;28;20214;-77
2023/05/27 11:33:55;;;;;;;3.35;1.42;;;;;;;;;;10350322;28;20235;-75
2023/05/27 11:39:00;;;;;;;5.30;1.10;;;;;;;;;;10367882;28;21941;-75
2023/05/27 11:44:05;;;;;;;3.53;1.10;;;;;;;;;;10357249;28;20219;-78
2023/05/27 11:49:07;;;;;;;2.00;0.85;;;;;;;;;;10365390;28;20751;-79
2023/05/27 11:54:15;;;;;;;4.32;1.42;;;;;;;;;;10345717;28;20235;-78
2023/05/27 11:59:16;;;;;;;3.00;1.05;;;;;;;;;;10344756;28;20847;-79
2023/05/27 12:09:51;;;;;;;2.72;1.20;;;;;;;;;;8604264;26;20227;-80
2023/05/27 12:14:52;;;;;;;4.88;1.40;;;;;;;;;;10324751;28;20246;-80
2023/05/27 12:19:53;;;;;;;1.48;0.90;;;;;;;;;;10343013;28;20258;-78
2023/05/27 12:24:55;;;;;;;2.90;1.10;;;;;;;;;;10362970;28;20624;-78
2023/05/27 12:29:56;;;;;;;0.85;0.82;;;;;;;;;;10356293;28;20211;-73
2023/05/27 12:34:57;;;;;;;0.82;0.82;;;;;;;;;;10322305;28;22272;-81
2023/05/27 12:39:58;;;;;;;2.95;1.10;;;;;;;;;;10299522;28;20223;-76
2023/05/27 12:44:59;;;;;;;2.70;1.00;;;;;;;;;;10298668;28;20222;-79
2023/05/27 12:50:00;;;;;;;3.10;1.08;;;;;;;;;;10304256;28;21248;-79
2023/05/27 12:55:02;;;;;;;1.75;0.98;;;;;;;;;;10321978;28;20284;-76
2023/05/27 13:00:04;;;;;;;3.97;0.75;;;;;;;;;;10359233;28;20246;-76
2023/05/27 13:05:08;;;;;;;1.20;1.10;;;;;;;;;;10341237;28;20242;-73
2023/05/27 13:10:14;;;;;;;2.45;0.90;;;;;;;;;;10383850;28;20213;-74
2023/05/27 13:15:18;;;;;;;1.48;0.68;;;;;;;;;;10337602;28;20255;-81
2023/05/27 13:20:20;;;;;;;2.95;1.00;;;;;;;;;;10319447;28;20212;-78
2023/05/27 13:25:22;;;;;;;2.90;0.90;;;;;;;;;;10353735;28;20279;-79
2023/05/27 13:30:23;;;;;;;2.08;0.75;;;;;;;;;;10345473;28;20234;-78
2023/05/27 13:35:24;;;;;;;2.80;1.23;;;;;;;;;;10349117;28;20247;-77
2023/05/27 13:40:25;;;;;;;1.60;0.88;;;;;;;;;;10365510;28;21861;-77
2023/05/27 13:45:26;;;;;;;5.07;1.10;;;;;;;;;;10360348;28;20700;-76
2023/05/27 13:50:29;;;;;;;6.53;1.42;;;;;;;;;;10347782;28;20334;-77
2023/05/27 13:55:30;;;;;;;1.48;0.82;;;;;;;;;;10365461;28;20725;-78
2023/05/27 14:00:31;;;;;;;0.70;0.70;;;;;;;;;;10357489;28;20212;-78
2023/05/27 14:05:34;;;;;;;0.93;0.80;;;;;;;;;;10354153;28;20779;-79
2023/05/27 14:10:35;;;;;;;1.30;1.10;;;;;;;;;;10360735;28;20303;-77
2023/05/27 14:15:36;;;;;;;0.73;0.68;;;;;;;;;;10336549;28;20316;-75
2023/05/27 14:20:37;;;;;;;1.13;1.02;;;;;;;;;;10355278;28;20251;-76
2023/05/27 14:25:39;;;;;;;1.67;1.02;;;;;;;;;;10359609;28;20581;-77
2023/05/27 14:30:40;;;;;;;0.75;0.65;;;;;;;;;;10343723;28;20230;-79
2023/05/27 14:35:41;;;;;;;6.40;1.08;;;;;;;;;;10344409;28;20581;-81
2023/05/27 14:40:43;;;;;;;1.83;1.48;;;;;;;;;;10342170;28;20300;-78
2023/05/27 14:45:44;;;;;;;0.90;0.90;;;;;;;;;;10356961;28;20216;-79
2023/05/27 14:50:45;;;;;;;2.25;0.82;;;;;;;;;;10354046;28;20583;-77
2023/05/27 14:55:48;;;;;;;3.65;0.95;;;;;;;;;;10356945;28;20224;-78
2023/05/27 15:00:49;;;;;;;3.10;0.80;;;;;;;;;;10353728;28;20216;-79
2023/05/27 15:05:51;;;;;;;1.27;0.88;;;;;;;;;;10338162;28;20226;-77
2023/05/27 15:10:52;;;;;;;2.85;1.00;;;;;;;;;;10327208;28;20244;-79
2023/05/27 15:15:54;;;;;;;1.65;0.70;;;;;;;;;;10293424;28;20237;-78
2023/05/27 15:20:55;;;;;;;1.48;0.82;;;;;;;;;;10249018;28;20216;-77
2023/05/27 15:25:56;;;;;;;1.65;1.10;;;;;;;;;;10263099;28;20220;-79
2023/05/27 15:30:57;;;;;;;1.15;0.60;;;;;;;;;;10300874;28;20215;-73
2023/05/27 15:35:58;;;;;;;2.50;1.13;;;;;;;;;;10287700;28;20313;-80
2023/05/27 15:40:59;;;;;;;1.77;0.82;;;;;;;;;;10312351;28;20810;-76
2023/05/27 15:46:00;;;;;;;1.02;0.95;;;;;;;;;;10267637;28;20305;-75
2023/05/27 15:51:02;;;;;;;2.47;0.88;;;;;;;;;;10273713;28;20226;-72
2023/05/27 15:56:04;;;;;;;1.90;0.88;;;;;;;;;;10272541;28;20350;-74
2023/05/27 16:01:06;;;;;;;0.90;0.70;;;;;;;;;;10297201;28;20284;-74
2023/05/27 16:06:08;;;;;;;1.30;0.73;;;;;;;;;;10279200;28;20216;-74
2023/05/27 16:11:09;;;;;;;1.95;0.80;;;;;;;;;;10276373;28;20319;-76
2023/05/27 16:16:10;;;;;;;1.60;0.80;;;;;;;;;;10277071;28;20227;-72
2023/05/27 16:21:12;;;;;;;2.83;0.70;;;;;;;;;;10243267;28;20974;-75
2023/05/27 16:26:13;;;;;;;0.85;0.65;;;;;;;;;;10283118;28;20366;-76
2023/05/27 16:31:14;;;;;;;3.72;0.73;;;;;;;;;;10286369;28;21095;-77
2023/05/27 16:36:15;;;;;;;4.95;1.05;;;;;;;;;;10290229;28;20219;-74
2023/05/27 16:41:16;;;;;;;1.23;0.60;;;;;;;;;;10273998;28;20783;-76
2023/05/27 16:46:17;;;;;;;0.80;0.80;;;;;;;;;;10293664;28;20226;-74
2023/05/27 16:51:18;;;;;;;1.05;1.05;;;;;;;;;;10269273;28;20215;-77
2023/05/27 16:56:19;;;;;;;1.17;0.70;;;;;;;;;;10257845;28;20215;-77
2023/05/27 17:01:21;;;;;;;1.95;1.85;;;;;;;;;;10260090;28;20216;-76
2023/05/27 17:06:22;;;;;;;0.98;0.93;;;;;;;;;;10259224;28;20219;-79
2023/05/27 17:11:23;;;;;;;1.55;0.70;;;;;;;;;;10355520;28;20215;-77
2023/05/27 17:16:24;;;;;;;6.28;4.22;;;;;;;;;;10279447;28;20223;-79
2023/05/27 17:21:27;;;;;;;4.22;2.53;;;;;;;;;;10344983;28;20768;-75
2023/05/27 17:26:29;;;;;;;8.27;4.88;;;;;;;;;;10348083;28;20219;-76
2023/05/27 17:31:30;;;;;;;4.72;2.28;;;;;;;;;;10339777;28;20262;-81
2023/05/27 17:36:31;;;;;;;5.50;4.57;;;;;;;;;;10302974;28;20234;-81
2023/05/27 17:41:33;;;;;;;16.92;11.98;;;;;;;;;;10315459;28;20218;-74
2023/05/27 17:46:34;;;;;;;9.80;4.57;;;;;;;;;;10299956;28;20220;-78
2023/05/27 17:51:36;;;;;;;43.10;16.90;;;;;;;;;;10330406;28;20326;-77
2023/05/27 17:56:37;;;;;;;2.28;1.50;;;;;;;;;;10313479;28;20702;-75
2023/05/27 18:01:38;;;;;;;0.90;0.90;;;;;;;;;;10346935;28;21250;-75
2023/05/27 18:06:40;;;;;;;0.77;0.60;;;;;;;;;;10333705;28;20218;-75
2023/05/27 18:11:41;;;;;;;1.30;1.20;;;;;;;;;;10343836;28;20239;-79
2023/05/27 18:16:42;;;;;;;1.02;0.93;;;;;;;;;;10329365;28;20238;-80
2023/05/27 18:21:43;;;;;;;1.20;1.10;;;;;;;;;;10369426;28;20219;-79
2023/05/27 18:26:44;;;;;;;2.75;1.00;;;;;;;;;;10376689;28;20511;-79
2023/05/27 18:31:45;;;;;;;0.70;0.70;;;;;;;;;;10376465;28;20238;-79
2023/05/27 18:36:46;;;;;;;1.00;1.00;;;;;;;;;;10370477;28;20224;-77
2023/05/27 18:41:47;;;;;;;0.90;0.90;;;;;;;;;;10360722;28;20253;-79
2023/05/27 18:46:49;;;;;;;0.77;0.77;;;;;;;;;;10367203;28;20643;-80
2023/05/27 18:51:51;;;;;;;0.65;0.65;;;;;;;;;;10365268;28;20622;-80
2023/05/27 18:56:52;;;;;;;0.90;0.90;;;;;;;;;;10370774;28;20293;-79
2023/05/27 19:01:53;;;;;;;1.77;1.00;;;;;;;;;;10347125;28;20220;-79
2023/05/27 19:06:54;;;;;;;2.47;1.00;;;;;;;;;;10364402;28;20223;-79
2023/05/27 19:11:55;;;;;;;1.00;0.90;;;;;;;;;;10360223;28;20281;-78
2023/05/27 19:16:56;;;;;;;0.70;0.70;;;;;;;;;;10362164;28;20924;-77
2023/05/27 19:21:57;;;;;;;1.05;1.05;;;;;;;;;;10343419;28;20219;-77
2023/05/27 19:26:58;;;;;;;1.10;1.10;;;;;;;;;;10359014;28;20250;-78
2023/05/27 19:32:00;;;;;;;3.72;1.10;;;;;;;;;;10339788;28;20211;-79
2023/05/27 19:37:01;;;;;;;3.22;1.00;;;;;;;;;;10361519;28;20281;-78
2023/05/27 19:42:02;;;;;;;1.35;0.80;;;;;;;;;;10362382;28;20207;-80
2023/05/27 19:47:03;;;;;;;1.08;1.08;;;;;;;;;;10361481;28;20247;-77
2023/05/27 19:52:05;;;;;;;1.95;1.42;;;;;;;;;;10363953;28;20219;-82
2023/05/27 19:57:06;;;;;;;1.30;1.27;;;;;;;;;;10362011;28;20255;-79
2023/05/27 20:02:09;;;;;;;1.58;1.02;;;;;;;;;;10365419;28;20700;-79
2023/05/27 20:07:10;;;;;;;1.73;1.73;;;;;;;;;;10356210;28;20258;-79
2023/05/27 20:12:11;;;;;;;4.85;3.00;;;;;;;;;;10347644;28;20216;-79
2023/05/27 20:17:12;;;;;;;1.73;1.67;;;;;;;;;;10347877;28;20227;-78
2023/05/27 20:22:13;;;;;;;4.18;2.45;;;;;;;;;;10361727;28;20223;-78
2023/05/27 20:27:14;;;;;;;3.13;2.13;;;;;;;;;;10358970;28;21022;-79
2023/05/27 20:32:15;;;;;;;3.15;1.98;;;;;;;;;;10362399;28;20227;-79
2023/05/27 20:37:16;;;;;;;5.68;3.60;;;;;;;;;;10319073;28;20215;-79
2023/05/27 20:42:18;;;;;;;6.18;3.08;;;;;;;;;;10342904;28;20211;-79
2023/05/27 20:47:19;;;;;;;2.95;2.58;;;;;;;;;;10337702;28;20234;-79
2023/05/27 20:52:20;;;;;;;3.20;3.00;;;;;;;;;;10364666;28;20223;-78
2023/05/27 20:57:23;;;;;;;4.80;3.38;;;;;;;;;;10369779;28;20637;-78
2023/05/27 21:02:24;;;;;;;4.95;4.38;;;;;;;;;;10371376;28;20220;-78
2023/05/27 21:07:25;;;;;;;5.80;4.30;;;;;;;;;;10353283;28;20648;-81
2023/05/27 21:12:26;;;;;;;8.93;5.78;;;;;;;;;;10368728;28;20210;-78
2023/05/27 21:17:27;;;;;;;103.85;35.22;;;;;;;;;;10355783;28;20360;-78
2023/05/27 21:22:28;;;;;;;62.33;24.27;;;;;;;;;;10337483;28;20294;-79
2023/05/27 21:27:29;;;;;;;19.38;8.52;;;;;;;;;;10372003;28;20236;-79
2023/05/27 21:32:30;;;;;;;12.32;6.07;;;;;;;;;;10364964;28;20234;-80
2023/05/27 21:37:31;;;;;;;4.50;2.65;;;;;;;;;;10364920;28;20609;-77
2023/05/27 21:42:33;;;;;;;1.80;1.70;;;;;;;;;;10365466;28;20747;-76
2023/05/27 21:47:34;;;;;;;1.67;1.52;;;;;;;;;;10366972;28;20226;-77
2023/05/27 21:52:35;;;;;;;7.43;3.20;;;;;;;;;;10339267;28;20234;-77
2023/05/27 21:57:36;;;;;;;4.97;3.42;;;;;;;;;;10361529;28;20216;-76
2023/05/27 22:02:37;;;;;;;13.38;6.20;;;;;;;;;;10356186;28;20255;-78
2023/05/27 22:07:38;;;;;;;15.05;6.93;;;;;;;;;;10344657;28;20216;-77
2023/05/27 22:12:39;;;;;;;49.65;18.65;;;;;;;;;;10364960;28;20264;-77
2023/05/27 22:17:40;;;;;;;235.20;68.78;;;;;;;;;;10362885;28;20799;-77
2023/05/27 22:22:41;;;;;;;217.35;60.28;;;;;;;;;;10345756;28;21689;-77
2023/05/27 22:27:42;;;;;;;102.85;35.00;;;;;;;;;;10344490;28;20219;-77
2023/05/27 22:32:43;;;;;;;66.38;22.80;;;;;;;;;;10365445;28;21012;-77
2023/05/27 22:37:44;;;;;;;37.55;15.45;;;;;;;;;;10348106;28;20226;-76
2023/05/27 22:42:45;;;;;;;29.95;12.45;;;;;;;;;;10368148;28;20284;-77
2023/05/27 22:47:46;;;;;;;43.55;20.10;;;;;;;;;;10339061;28;20262;-77
2023/05/27 22:52:48;;;;;;;64.35;24.65;;;;;;;;;;10363473;28;20207;-76
2023/05/27 22:57:50;;;;;;;34.88;14.70;;;;;;;;;;10350551;28;20220;-77
2023/05/27 23:02:51;;;;;;;29.17;12.45;;;;;;;;;;10332207;28;20223;-78
2023/05/27 23:07:52;;;;;;;34.53;15.07;;;;;;;;;;10359127;28;20234;-77
2023/05/27 23:12:53;;;;;;;64.22;28.15;;;;;;;;;;10346641;28;20235;-77
2023/05/27 23:17:54;;;;;;;106.10;41.92;;;;;;;;;;10362615;28;20215;-77
2023/05/27 23:22:55;;;;;;;70.93;32.80;;;;;;;;;;10335008;28;20211;-77
2023/05/27 23:27:56;;;;;;;37.25;17.50;;;;;;;;;;10348008;28;20318;-78
2023/05/27 23:32:58;;;;;;;13.25;6.75;;;;;;;;;;10366669;28;20391;-76
2023/05/27 23:37:59;;;;;;;8.18;4.85;;;;;;;;;;10344640;28;20227;-78
2023/05/27 23:43:00;;;;;;;6.97;4.90;;;;;;;;;;10367137;28;20246;-77
2023/05/27 23:48:02;;;;;;;3.47;2.88;;;;;;;;;;10349426;28;20226;-77
2023/05/27 23:53:03;;;;;;;2.97;2.17;;;;;;;;;;10348841;28;20234;-76
2023/05/27 23:58:04;;;;;;;5.63;3.00;;;;;;;;;;10339929;28;20730;-77
